»·PEaware :: N996PB KFUL-KGCN

N996PB :: KFUL-KGCN

FLIGHT INFORMATION

Flight Status: Arrived
Operator: Privately registered:
United States
More flights under this callsign
Pilot: Finn S. (35504)
Aircraft: CESSNA 172 SKYHAWK
(C172)
More flights by this aircraft type
Origin: KFUL Fullerton Mun
United States
Destination: KGCN Grand Canyon Natl Park
United States
More flights between these airports :: More routes between these airports
Route: SAVRE
File this flight plan on PilotEdge
Remarks:
Altitude:
(Current/Filed)
0ft
Speed:
(Current/Filed)
0kts
Departed: 11-Oct-21 06:45 PM
Arrived: 11-Oct-21 09:08 PM
Distance/Time
Traveled:
313nm/2:23
Distance/Time
To Go:
Arrived

Flight Plot

Page will automatically refresh every two minutes.

Flight plan parsing failed; only flown route is shown


Map Options




Map Legend


Flown Route
Filed Route
Departure Airport
Arrival Airport
Navaid (VOR, NDB)
Fix

Horizontal Profiles

Position Reports

Time Latitude Longitude Heading Altitude Ground
Speed
11-Oct-21 18:40 33.870979 -117.978561 259 93ft 0kts
11-Oct-21 18:42 33.871723 -117.978827 61 92ft 6kts
11-Oct-21 18:42 33.872406 -117.975646 76 96ft 12kts
11-Oct-21 18:43 33.872944 -117.975044 276 96ft 11kts
11-Oct-21 18:45 33.868800 -118.000653 262 838ft 75kts
11-Oct-21 18:46 33.850960 -118.008136 137 1640ft 93kts
11-Oct-21 18:46 33.854968 -117.982409 63 2108ft 108kts
11-Oct-21 18:47 33.860452 -117.965823 61 2387ft 109kts
11-Oct-21 18:48 33.872743 -117.934335 58 3074ft 106kts
11-Oct-21 18:49 33.885998 -117.900872 56 3432ft 123kts
11-Oct-21 18:51 33.910108 -117.862291 46 3493ft 118kts
11-Oct-21 18:51 33.926136 -117.837379 45 3688ft 104kts
11-Oct-21 18:52 33.942985 -117.811171 41 4214ft 84kts
11-Oct-21 18:53 33.957589 -117.788762 39 4645ft 87kts
11-Oct-21 18:54 33.972933 -117.765102 38 5128ft 92kts
11-Oct-21 18:55 33.989113 -117.740096 38 5747ft 96kts
11-Oct-21 18:56 34.005822 -117.714140 38 6419ft 98kts
11-Oct-21 18:57 34.023070 -117.687365 38 7036ft 103kts
11-Oct-21 18:58 34.041598 -117.658729 39 7467ft 125kts
11-Oct-21 18:59 34.064941 -117.622210 43 7462ft 144kts
11-Oct-21 19:00 34.089687 -117.583405 43 7459ft 146kts
11-Oct-21 19:01 34.114518 -117.544590 42 7466ft 145kts
11-Oct-21 19:02 34.139026 -117.506271 40 7472ft 143kts
11-Oct-21 19:03 34.163098 -117.468694 41 7504ft 145kts
11-Oct-21 19:04 34.187774 -117.430076 41 7478ft 144kts
11-Oct-21 19:05 34.212167 -117.391838 41 7478ft 143kts
11-Oct-21 19:06 34.236583 -117.353566 42 7476ft 144kts
11-Oct-21 19:07 34.261012 -117.315174 42 7495ft 143kts
11-Oct-21 19:08 34.285172 -117.277197 41 7518ft 142kts
11-Oct-21 19:09 34.309387 -117.239131 42 7511ft 144kts
11-Oct-21 19:10 34.333810 -117.200643 42 7506ft 144kts
11-Oct-21 19:11 34.358272 -117.162065 42 7491ft 145kts
11-Oct-21 19:12 34.382857 -117.123258 42 7461ft 145kts
11-Oct-21 19:13 34.407387 -117.084501 43 7456ft 145kts
11-Oct-21 19:14 34.431954 -117.045629 43 7478ft 145kts
11-Oct-21 19:15 34.456748 -117.006405 45 7490ft 148kts
11-Oct-21 19:16 34.481762 -116.966718 45 7487ft 149kts
11-Oct-21 19:17 34.507143 -116.926451 45 7473ft 151kts
11-Oct-21 19:18 34.532743 -116.885736 47 7433ft 152kts
11-Oct-21 19:19 34.558279 -116.845095 48 7427ft 151kts
11-Oct-21 19:20 34.583769 -116.804497 48 7429ft 151kts
11-Oct-21 19:21 34.609411 -116.763613 49 7432ft 152kts
11-Oct-21 19:22 34.635019 -116.722717 47 7429ft 152kts
11-Oct-21 19:23 34.660707 -116.681663 49 7430ft 152kts
11-Oct-21 19:24 34.686302 -116.640702 47 7427ft 152kts
11-Oct-21 19:25 34.711869 -116.599742 47 7426ft 151kts
11-Oct-21 19:26 34.737402 -116.558811 49 7425ft 152kts
11-Oct-21 19:27 34.758263 -116.514376 67 7423ft 152kts
11-Oct-21 19:28 34.772428 -116.466259 68 7429ft 150kts
11-Oct-21 19:29 34.786563 -116.418315 68 7431ft 150kts
11-Oct-21 19:30 34.800606 -116.370559 68 7437ft 149kts
11-Oct-21 19:31 34.814599 -116.323001 68 7442ft 149kts
11-Oct-21 19:32 34.828516 -116.275565 68 7453ft 148kts
11-Oct-21 19:33 34.842332 -116.228410 69 7473ft 148kts
11-Oct-21 19:34 34.856121 -116.181216 68 7482ft 147kts
11-Oct-21 19:35 34.869886 -116.134123 68 7488ft 147kts
11-Oct-21 19:36 34.883612 -116.087035 68 7490ft 148kts
11-Oct-21 19:37 34.897308 -116.039806 66 7489ft 146kts
11-Oct-21 19:38 34.910900 -115.993046 66 7485ft 146kts
11-Oct-21 19:39 34.924341 -115.946725 64 7483ft 143kts
11-Oct-21 19:40 34.937452 -115.901465 63 7484ft 141kts
11-Oct-21 19:41 34.950402 -115.856688 63 7484ft 138kts
11-Oct-21 19:42 34.963169 -115.812466 61 7485ft 138kts
11-Oct-21 19:43 34.975075 -115.771138 62 7487ft 137kts
11-Oct-21 19:44 34.986700 -115.730757 60 7485ft 136kts
11-Oct-21 19:45 34.999225 -115.687120 60 7488ft 135kts
11-Oct-21 19:46 35.011733 -115.643597 59 7455ft 137kts
11-Oct-21 19:47 35.024172 -115.599720 51 7419ft 138kts
11-Oct-21 19:48 35.037104 -115.554946 51 7378ft 142kts
11-Oct-21 19:49 35.050291 -115.508995 53 7326ft 143kts
11-Oct-21 19:50 35.063494 -115.462646 53 7290ft 146kts
11-Oct-21 19:51 35.076941 -115.415276 53 7265ft 147kts
11-Oct-21 19:52 35.090374 -115.367984 53 7261ft 146kts
11-Oct-21 19:53 35.103795 -115.320804 55 7264ft 148kts
11-Oct-21 19:54 35.117536 -115.272266 57 7258ft 153kts
11-Oct-21 19:55 35.131624 -115.222559 58 7261ft 157kts
11-Oct-21 19:56 35.145990 -115.171490 62 7259ft 159kts
11-Oct-21 19:57 35.160164 -115.121277 68 7429ft 151kts
11-Oct-21 19:58 35.174059 -115.071770 70 7434ft 154kts
11-Oct-21 19:59 35.187890 -115.022472 72 7436ft 152kts
11-Oct-21 20:00 35.201374 -114.974280 73 7433ft 147kts
11-Oct-21 20:01 35.214411 -114.927559 74 7440ft 144kts
11-Oct-21 20:02 35.227305 -114.881418 75 7433ft 143kts
11-Oct-21 20:03 35.240238 -114.835048 73 7436ft 143kts
11-Oct-21 20:04 35.253032 -114.788953 74 7435ft 143kts
11-Oct-21 20:05 35.265927 -114.742669 75 7435ft 143kts
11-Oct-21 20:06 35.278700 -114.696501 74 7436ft 143kts
11-Oct-21 20:07 35.291536 -114.650160 74 7433ft 143kts
11-Oct-21 20:08 35.304351 -114.603819 74 7435ft 144kts
11-Oct-21 20:09 35.317148 -114.557420 75 7436ft 143kts
11-Oct-21 20:10 35.330125 -114.510278 74 7364ft 145kts
11-Oct-21 20:11 35.342998 -114.463496 73 7363ft 144kts
11-Oct-21 20:12 35.355507 -114.416700 75 7372ft 144kts
11-Oct-21 20:13 35.367328 -114.369492 74 7383ft 145kts
11-Oct-21 20:14 35.379174 -114.322029 76 7381ft 147kts
11-Oct-21 20:15 35.391061 -114.273896 74 7396ft 147kts
11-Oct-21 20:16 35.403097 -114.225463 74 7394ft 149kts
11-Oct-21 20:17 35.414977 -114.177532 73 7725ft 125kts
11-Oct-21 20:18 35.422592 -114.140011 79 8416ft 110kts
11-Oct-21 20:19 35.428732 -114.102931 80 8942ft 112kts
11-Oct-21 20:20 35.434878 -114.065707 79 9492ft 111kts
11-Oct-21 20:21 35.441087 -114.028333 80 9989ft 114kts
11-Oct-21 20:22 35.447316 -113.990432 82 10497ft 113kts
11-Oct-21 20:23 35.453614 -113.952198 81 10894ft 121kts
11-Oct-21 20:24 35.461078 -113.906542 80 10902ft 146kts
11-Oct-21 20:25 35.469169 -113.857118 80 10901ft 149kts
11-Oct-21 20:26 35.477145 -113.808365 80 10899ft 149kts
11-Oct-21 20:27 35.485325 -113.758368 80 10899ft 149kts
11-Oct-21 20:28 35.493456 -113.708345 80 10898ft 149kts
11-Oct-21 20:29 35.501621 -113.658119 80 10901ft 150kts
11-Oct-21 20:30 35.509758 -113.607795 80 10900ft 150kts
11-Oct-21 20:31 35.517857 -113.557632 80 10901ft 150kts
11-Oct-21 20:32 35.525985 -113.507133 80 10901ft 150kts
11-Oct-21 20:33 35.534044 -113.456914 80 10901ft 150kts
11-Oct-21 20:34 35.542137 -113.406375 80 10901ft 151kts
11-Oct-21 20:35 35.550268 -113.355502 80 10898ft 151kts
11-Oct-21 20:36 35.558286 -113.305104 80 10899ft 150kts
11-Oct-21 20:37 35.566219 -113.255120 81 10929ft 147kts
11-Oct-21 20:38 35.573975 -113.206086 80 11016ft 145kts
11-Oct-21 20:39 35.581793 -113.156457 79 10876ft 153kts
11-Oct-21 20:40 35.590037 -113.104090 79 10577ft 157kts
11-Oct-21 20:41 35.598349 -113.051110 78 10274ft 156kts
11-Oct-21 20:42 35.606650 -112.998115 77 9970ft 157kts
11-Oct-21 20:43 35.615130 -112.944923 87 9675ft 149kts
11-Oct-21 20:44 35.622640 -112.895915 88 9245ft 142kts
11-Oct-21 20:45 35.629587 -112.850337 89 9168ft 130kts
11-Oct-21 20:46 35.636462 -112.806401 91 9121ft 129kts
11-Oct-21 20:47 35.643158 -112.762765 87 9089ft 123kts
11-Oct-21 20:48 35.649530 -112.721691 88 9077ft 120kts
11-Oct-21 20:49 35.655797 -112.680973 88 9065ft 120kts
11-Oct-21 20:50 35.662009 -112.640264 88 9054ft 120kts
11-Oct-21 20:51 35.668180 -112.599853 88 9042ft 120kts
11-Oct-21 20:52 35.674366 -112.559228 88 9029ft 120kts
11-Oct-21 20:53 35.680881 -112.518815 87 9017ft 120kts
11-Oct-21 20:54 35.687306 -112.478245 87 9019ft 120kts
11-Oct-21 20:55 35.695169 -112.439415 78 9016ft 115kts
11-Oct-21 20:56 35.712219 -112.406653 61 9018ft 114kts
11-Oct-21 20:57 35.734536 -112.378221 54 9018ft 116kts
11-Oct-21 20:58 35.758681 -112.351521 52 9015ft 116kts
11-Oct-21 20:59 35.783129 -112.325154 53 9020ft 117kts
11-Oct-21 21:00 35.807636 -112.299329 52 9021ft 115kts
11-Oct-21 21:01 35.832078 -112.273636 52 9019ft 115kts
11-Oct-21 21:02 35.856908 -112.247442 51 8787ft 124kts
11-Oct-21 21:03 35.883093 -112.219923 50 8139ft 118kts
11-Oct-21 21:04 35.907490 -112.194259 49 7510ft 112kts
11-Oct-21 21:05 35.928289 -112.172447 53 6982ft 72kts
11-Oct-21 21:06 35.941011 -112.158974 53 6662ft 56kts
11-Oct-21 21:07 35.947233 -112.151326 109 6571ft 5kts
11-Oct-21 21:08 35.947946 -112.149833 37 6577ft 20kts
11-Oct-21 21:09 35.950564 -112.146052 152 6595ft 0kts

Navigation Log

Ident Type
Flight plan parsing failed, navigation log unavailable